HEMM

Mersa Matruh Airport

Mersa Matruh, Egypt
TAF HEMM 181100Z 1812/1918 23009KT 9999 FEW020
Issued Valid From Valid To
Jan-18 @ 11:00 UTC
(an hour ago)
Jan-18 @ 12:00 UTC
(26 minutes ago)
Jan-19 @ 18:00 UTC
(-1 days ago)
Jan-18 @ 12:00 to Jan-19 @ 18:00
TAF HEMM 181100Z 1812/1918 23009KT 9999 FEW020
Wind Visibility Clouds
230° at 9 knots 10,000+ meters
  • Few at 2,000' AGL
TAF HEMM 181100Z 1812/1918 23009KT 9999 FEW020
Issued Jan-18 @ 11:00 UTC
(an hour ago)
Valid From Jan-18 @ 12:00 UTC
(26 minutes ago)
Valid To Jan-19 @ 18:00 UTC
(-1 days ago)
Jan-18 @ 12:00 - Jan-19 @ 18:00
Wind Visibility
230° at 9 knots 10,000+ meters
Clouds
  • Few at 2,000' AGL